createdAt,value
2018-10-18T00:00:31.528Z,17.53
2018-10-18T00:03:01.617Z,17.27
2018-10-18T00:05:32.382Z,17.87
2018-10-18T00:08:02.673Z,15.87
2018-10-18T00:10:32.957Z,15.50
2018-10-18T00:13:03.153Z,16.83
2018-10-18T00:15:33.136Z,20.20
2018-10-18T00:18:04.060Z,18.47
2018-10-18T00:20:34.024Z,17.40
2018-10-18T00:23:04.187Z,18.30
2018-10-18T00:25:34.212Z,20.87
2018-10-18T00:28:04.314Z,22.27
2018-10-18T00:30:34.328Z,20.93
2018-10-18T00:33:04.518Z,16.57
2018-10-18T00:35:34.532Z,23.80
2018-10-18T00:38:04.852Z,18.07
2018-10-18T00:40:34.667Z,17.03
2018-10-18T00:43:04.823Z,18.50
2018-10-18T00:45:34.807Z,17.57
2018-10-18T00:48:04.988Z,15.90
2018-10-18T00:50:34.943Z,15.20
2018-10-18T00:53:05.270Z,15.37
2018-10-18T00:55:35.216Z,14.53
2018-10-18T00:58:05.653Z,25.17
2018-10-18T01:00:35.641Z,19.10
2018-10-18T01:03:05.969Z,16.07
2018-10-18T01:05:35.992Z,16.23
2018-10-18T01:08:06.322Z,15.83
2018-10-18T01:10:36.268Z,16.27
2018-10-18T01:13:06.627Z,16.33
2018-10-18T01:15:36.681Z,16.80
2018-10-18T01:18:07.585Z,18.77
2018-10-18T01:20:37.484Z,13.60
2018-10-18T01:23:08.138Z,16.13
2018-10-18T01:25:38.167Z,21.90
2018-10-18T01:28:08.499Z,19.83
2018-10-18T01:30:38.539Z,15.20
2018-10-18T01:33:08.577Z,16.53
2018-10-18T01:35:38.546Z,15.37
2018-10-18T01:38:08.618Z,18.80
2018-10-18T01:40:38.532Z,16.13
2018-10-18T01:43:08.546Z,20.17
2018-10-18T01:45:38.500Z,16.63
2018-10-18T01:48:09.377Z,20.40
2018-10-18T01:50:39.286Z,17.73
2018-10-18T01:53:09.684Z,20.33
2018-10-18T01:55:39.780Z,18.53
2018-10-18T01:58:09.799Z,19.80
2018-10-18T02:00:39.817Z,18.23
2018-10-18T02:03:09.799Z,18.13
2018-10-18T02:05:39.778Z,18.00
2018-10-18T02:08:09.757Z,17.30
2018-10-18T02:10:39.665Z,20.10
2018-10-18T02:13:09.624Z,16.33
2018-10-18T02:15:39.659Z,17.00
2018-10-18T02:18:09.778Z,15.63
2018-10-18T02:20:39.612Z,18.77
2018-10-18T02:23:09.585Z,17.43
2018-10-18T02:25:39.500Z,20.33
2018-10-18T02:28:09.454Z,18.17
2018-10-18T02:30:39.421Z,21.97
2018-10-18T02:33:09.344Z,20.33
2018-10-18T02:35:39.307Z,18.00
2018-10-18T02:38:09.509Z,18.27
2018-10-18T02:40:39.484Z,21.53
2018-10-18T02:43:09.514Z,21.53
2018-10-18T02:45:39.393Z,20.43
2018-10-18T02:48:09.475Z,20.57
2018-10-18T02:50:39.432Z,16.37
2018-10-18T02:53:09.449Z,17.57
2018-10-18T02:55:39.337Z,23.73
2018-10-18T02:58:09.314Z,19.30
2018-10-18T03:00:39.253Z,16.33
2018-10-18T03:03:09.339Z,17.17
2018-10-18T03:05:39.376Z,18.97
2018-10-18T03:08:09.249Z,21.67
2018-10-18T03:10:39.269Z,16.60
2018-10-18T03:13:09.269Z,26.67
2018-10-18T03:15:39.337Z,19.20
2018-10-18T03:18:09.299Z,17.57
2018-10-18T03:20:39.303Z,16.43
2018-10-18T03:23:09.266Z,18.53
2018-10-18T03:25:39.265Z,19.07
2018-10-18T03:28:09.216Z,16.70
2018-10-18T03:30:39.166Z,18.92
2018-10-18T03:33:09.150Z,15.47
2018-10-18T03:35:39.164Z,18.40
2018-10-18T03:38:09.102Z,18.53
2018-10-18T03:40:39.174Z,18.70
2018-10-18T03:43:09.076Z,18.23
2018-10-18T03:45:39.066Z,20.20
2018-10-18T03:48:09.031Z,18.70
2018-10-18T03:50:38.970Z,19.00
2018-10-18T03:53:08.975Z,21.50
2018-10-18T03:55:38.992Z,23.10
2018-10-18T03:58:08.954Z,23.70
2018-10-18T04:00:38.973Z,20.63
2018-10-18T04:03:08.989Z,24.27
2018-10-18T04:05:39.020Z,21.20
2018-10-18T04:08:09.028Z,22.47
2018-10-18T04:10:38.992Z,23.37
2018-10-18T04:13:09.003Z,23.07
2018-10-18T04:15:39.005Z,24.63
2018-10-18T04:18:09.093Z,22.63
2018-10-18T04:20:39.013Z,24.63
2018-10-18T04:23:08.995Z,28.67
2018-10-18T04:25:39.130Z,23.50
2018-10-18T04:28:09.072Z,26.33
2018-10-18T04:30:39.148Z,26.23
2018-10-18T04:33:09.168Z,27.53
2018-10-18T04:35:39.297Z,23.73
2018-10-18T04:38:09.316Z,26.37
2018-10-18T04:40:39.332Z,23.73
2018-10-18T04:43:09.383Z,25.10
2018-10-18T04:45:39.731Z,24.80
2018-10-18T04:48:09.781Z,25.00
2018-10-18T04:50:39.775Z,24.57
2018-10-18T04:53:09.832Z,22.53
2018-10-18T04:55:39.801Z,26.73
2018-10-18T04:58:09.776Z,26.70
2018-10-18T05:00:39.753Z,28.07
2018-10-18T05:03:09.742Z,24.57
2018-10-18T05:05:48.778Z,27.80
2018-10-18T05:08:19.088Z,25.27
2018-10-18T05:10:49.297Z,24.20
2018-10-18T05:13:19.546Z,25.13
2018-10-18T05:15:49.554Z,28.47
2018-10-18T05:18:20.207Z,26.53
2018-10-18T05:20:50.176Z,24.13
2018-10-18T05:23:20.140Z,25.63
2018-10-18T05:25:50.830Z,24.33
2018-10-18T05:28:21.031Z,27.80
2018-10-18T05:30:51.048Z,29.80
2018-10-18T05:33:21.033Z,24.53
2018-10-18T05:35:50.937Z,28.60
2018-10-18T05:38:21.000Z,28.27
2018-10-18T05:40:50.972Z,28.87
2018-10-18T05:43:23.192Z,27.40
2018-10-18T05:45:54.284Z,26.67
2018-10-18T05:48:24.442Z,28.57
2018-10-18T05:50:54.447Z,32.27
2018-10-18T05:53:24.572Z,33.27
2018-10-18T05:55:55.593Z,29.73
2018-10-18T05:58:25.652Z,32.60
2018-10-18T06:00:55.815Z,27.77
2018-10-18T06:03:25.776Z,31.07
2018-10-18T06:05:55.806Z,32.77
2018-10-18T06:08:25.849Z,34.17
2018-10-18T06:11:07.038Z,27.57
2018-10-18T06:13:37.137Z,34.20
2018-10-18T06:16:07.216Z,30.07
2018-10-18T06:18:37.332Z,30.03
2018-10-18T06:21:07.402Z,26.33
2018-10-18T06:23:37.451Z,27.83
2018-10-18T06:26:07.595Z,26.60
2018-10-18T06:28:37.627Z,29.27
2018-10-18T06:31:07.730Z,25.67
2018-10-18T06:33:37.727Z,25.10
2018-10-18T06:36:07.765Z,22.87
2018-10-18T06:38:37.770Z,23.87
2018-10-18T06:41:08.090Z,23.47
2018-10-18T06:43:40.082Z,27.80
2018-10-18T06:46:11.708Z,22.50
2018-10-18T06:48:43.309Z,26.80
2018-10-18T06:51:13.223Z,24.50
2018-10-18T06:53:43.317Z,23.00
2018-10-18T06:56:13.326Z,26.90
2018-10-18T06:58:43.405Z,25.27
2018-10-18T07:01:13.449Z,32.50
2018-10-18T07:03:43.493Z,26.50
2018-10-18T07:06:13.716Z,29.93
2018-10-18T07:08:43.799Z,30.40
2018-10-18T07:11:13.909Z,33.47
2018-10-18T07:13:44.019Z,30.63
2018-10-18T07:16:14.049Z,28.83
2018-10-18T07:18:44.047Z,31.33
2018-10-18T07:21:14.095Z,30.47
2018-10-18T07:23:44.080Z,34.67
2018-10-18T07:26:14.099Z,29.63
2018-10-18T07:28:44.114Z,29.80
2018-10-18T07:31:14.164Z,29.27
2018-10-18T07:33:44.234Z,32.63
2018-10-18T07:36:14.379Z,34.63
2018-10-18T07:38:44.259Z,26.37
2018-10-18T07:41:14.372Z,30.97
2018-10-18T07:43:44.352Z,33.20
2018-10-18T07:46:14.400Z,29.43
2018-10-18T07:48:44.523Z,34.20
2018-10-18T07:51:14.761Z,38.47
2018-10-18T07:53:44.865Z,45.17
2018-10-18T07:56:14.895Z,43.60
2018-10-18T07:58:44.912Z,37.80
2018-10-18T08:01:15.029Z,46.23
2018-10-18T08:03:45.365Z,43.00
2018-10-18T08:06:15.564Z,46.67
2018-10-18T08:08:45.745Z,48.67
2018-10-18T08:11:15.929Z,47.37
2018-10-18T08:13:46.195Z,44.10
2018-10-18T08:16:16.390Z,37.70
2018-10-18T08:18:46.460Z,37.43
2018-10-18T08:21:16.597Z,41.70
2018-10-18T08:23:46.856Z,48.23
2018-10-18T08:26:17.101Z,41.87
2018-10-18T08:28:47.305Z,41.97
2018-10-18T08:31:17.661Z,36.00
2018-10-18T08:33:48.114Z,42.23
2018-10-18T08:36:18.290Z,38.30
2018-10-18T08:38:48.776Z,38.70
2018-10-18T08:41:18.592Z,38.07
2018-10-18T08:43:48.759Z,38.27
2018-10-18T08:46:19.017Z,34.80
2018-10-18T08:48:49.121Z,40.30
2018-10-18T08:51:19.865Z,40.57
2018-10-18T08:53:49.829Z,39.13
2018-10-18T08:56:20.031Z,34.03
2018-10-18T08:58:50.050Z,41.17
2018-10-18T09:01:20.170Z,37.10
2018-10-18T09:03:50.635Z,34.87
2018-10-18T09:06:20.949Z,37.50
2018-10-18T09:08:50.943Z,46.07
2018-10-18T09:11:21.011Z,34.47
2018-10-18T09:13:51.025Z,34.17
2018-10-18T09:16:21.175Z,35.40
2018-10-18T09:18:51.204Z,36.80
2018-10-18T09:21:21.303Z,31.50
2018-10-18T09:23:51.388Z,31.27
2018-10-18T09:26:21.332Z,31.43
2018-10-18T09:28:51.366Z,29.00
2018-10-18T09:31:21.402Z,36.20
2018-10-18T09:33:51.626Z,31.17
2018-10-18T09:36:21.760Z,28.67
2018-10-18T09:38:51.774Z,29.00
2018-10-18T09:41:22.393Z,29.53
2018-10-18T09:44:07.885Z,32.47
2018-10-18T09:46:38.564Z,26.73
2018-10-18T09:49:08.845Z,31.57
2018-10-18T09:51:39.072Z,29.83
2018-10-18T09:54:09.221Z,30.87
2018-10-18T09:56:39.515Z,34.30
2018-10-18T09:59:09.598Z,26.93
2018-10-18T10:01:44.940Z,30.30
2018-10-18T10:04:15.037Z,26.80
2018-10-18T10:06:45.148Z,28.47
2018-10-18T10:09:15.824Z,33.27
2018-10-18T10:11:46.297Z,27.23
2018-10-18T10:14:16.217Z,28.33
2018-10-18T10:16:46.397Z,28.77
2018-10-18T10:19:16.451Z,29.17
2018-10-18T10:21:46.750Z,32.40
2018-10-18T10:24:16.709Z,28.83
2018-10-18T10:26:46.780Z,27.37
2018-10-18T10:29:16.869Z,26.07
2018-10-18T10:31:47.153Z,25.37
2018-10-18T10:34:17.159Z,28.23
2018-10-18T10:36:47.177Z,29.53
2018-10-18T10:39:17.365Z,25.57
2018-10-18T10:41:47.354Z,26.90
2018-10-18T10:44:17.442Z,26.67
2018-10-18T10:46:47.541Z,24.73
2018-10-18T10:49:17.640Z,26.77
2018-10-18T10:51:47.581Z,30.90
2018-10-18T10:54:17.708Z,28.30
2018-10-18T10:56:47.683Z,30.23
2018-10-18T10:59:18.694Z,24.97
2018-10-18T11:01:48.752Z,28.93
2018-10-18T11:04:18.824Z,27.17
2018-10-18T11:06:48.857Z,27.07
2018-10-18T11:09:18.928Z,24.73
2018-10-18T11:11:49.051Z,24.10
2018-10-18T11:14:19.206Z,25.30
2018-10-18T11:16:49.195Z,30.73
2018-10-18T11:19:19.214Z,26.57
2018-10-18T11:21:49.241Z,29.47
2018-10-18T11:24:19.354Z,34.20
2018-10-18T11:26:49.258Z,29.40
2018-10-18T11:29:19.297Z,26.13
2018-10-18T11:31:49.235Z,28.23
2018-10-18T11:34:19.333Z,28.47
2018-10-18T11:36:50.326Z,24.63
2018-10-18T11:39:20.496Z,23.80
2018-10-18T11:41:50.500Z,27.77
2018-10-18T11:44:24.692Z,29.60
2018-10-18T11:46:54.717Z,26.13
2018-10-18T11:49:24.800Z,25.13
2018-10-18T11:51:54.942Z,23.47
2018-10-18T11:54:24.965Z,24.80
2018-10-18T11:56:55.089Z,25.03
2018-10-18T11:59:25.140Z,30.63
2018-10-18T12:01:55.093Z,24.63
2018-10-18T12:04:25.098Z,25.33
2018-10-18T12:06:55.076Z,24.83
2018-10-18T12:09:25.114Z,24.23
2018-10-18T12:11:55.120Z,24.87
2018-10-18T12:14:25.118Z,25.50
2018-10-18T12:16:55.228Z,25.13
2018-10-18T12:19:25.285Z,26.03
2018-10-18T12:21:55.360Z,24.70
2018-10-18T12:24:25.503Z,20.80
2018-10-18T12:26:55.615Z,21.20
2018-10-18T12:29:25.750Z,22.17
2018-10-18T12:31:55.909Z,24.23
2018-10-18T12:34:25.846Z,19.70
2018-10-18T12:36:56.906Z,19.60
2018-10-18T12:39:26.955Z,21.97
2018-10-18T12:41:57.109Z,22.87
2018-10-18T12:44:31.276Z,24.73
2018-10-18T12:47:01.301Z,20.77
2018-10-18T12:49:31.409Z,19.77
2018-10-18T12:52:01.414Z,18.97
2018-10-18T12:54:31.497Z,19.60
2018-10-18T12:57:01.667Z,20.90
2018-10-18T12:59:31.748Z,18.40
2018-10-18T13:02:01.896Z,17.83
2018-10-18T13:04:32.093Z,18.30
2018-10-18T13:07:03.079Z,20.17
2018-10-18T13:09:33.268Z,17.13
2018-10-18T13:12:03.297Z,17.10
2018-10-18T13:14:33.468Z,16.15
2018-10-18T13:17:03.690Z,17.23
2018-10-18T13:19:33.748Z,15.90
2018-10-18T13:22:03.984Z,19.90
2018-10-18T13:24:34.092Z,15.43
2018-10-18T13:27:04.715Z,16.43
2018-10-18T13:29:34.892Z,17.20
2018-10-18T13:32:05.264Z,22.40
2018-10-18T13:34:35.288Z,16.03
2018-10-18T13:37:05.610Z,14.97
2018-10-18T13:39:35.585Z,15.77
2018-10-18T13:42:06.409Z,16.60
2018-10-18T13:44:36.461Z,19.00
2018-10-18T13:47:06.477Z,19.10
2018-10-18T13:49:36.573Z,21.10
2018-10-18T13:52:06.605Z,17.10
2018-10-18T13:54:36.627Z,15.53
2018-10-18T13:57:07.712Z,22.53
2018-10-18T13:59:49.482Z,27.33
2018-10-18T14:02:19.590Z,20.40
2018-10-18T14:04:49.488Z,18.80
2018-10-18T14:07:19.589Z,17.30
2018-10-18T14:09:49.624Z,21.60
2018-10-18T14:12:23.650Z,19.13
2018-10-18T14:14:53.745Z,19.53
2018-10-18T14:17:24.014Z,22.53
2018-10-18T14:19:53.883Z,22.37
2018-10-18T14:22:23.893Z,19.63
2018-10-18T14:24:53.931Z,28.03
2018-10-18T14:27:24.032Z,24.97
2018-10-18T14:29:54.189Z,20.63
2018-10-18T14:32:24.207Z,27.50
2018-10-18T14:34:54.240Z,24.53
2018-10-18T14:37:24.200Z,27.30
2018-10-18T14:39:54.208Z,20.70
2018-10-18T14:42:24.241Z,27.67
2018-10-18T14:44:55.273Z,20.67
2018-10-18T14:47:25.868Z,23.23
2018-10-18T14:49:55.941Z,21.20
2018-10-18T14:52:25.916Z,21.67
2018-10-18T14:54:55.946Z,22.13
2018-10-18T14:57:26.031Z,23.40
2018-10-18T14:59:55.986Z,21.70
2018-10-18T15:02:26.010Z,20.73
2018-10-18T15:04:56.122Z,19.97
2018-10-18T15:07:26.152Z,26.07
2018-10-18T15:09:56.124Z,21.63
2018-10-18T15:12:26.256Z,17.63
2018-10-18T15:14:56.270Z,20.83
2018-10-18T15:17:26.226Z,18.43
2018-10-18T15:19:56.271Z,21.10
2018-10-18T15:22:26.589Z,22.37
2018-10-18T15:24:56.655Z,17.90
2018-10-18T15:27:26.858Z,22.80
2018-10-18T15:29:56.728Z,20.60
2018-10-18T15:32:26.868Z,23.03
2018-10-18T15:34:56.879Z,18.70
2018-10-18T15:37:26.952Z,21.30
2018-10-18T15:39:56.945Z,19.67
2018-10-18T15:42:27.049Z,18.20
2018-10-18T15:44:57.223Z,21.77
2018-10-18T15:47:27.324Z,16.80
2018-10-18T15:49:57.441Z,19.33
2018-10-18T15:52:27.497Z,17.63
2018-10-18T15:54:57.548Z,15.87
2018-10-18T15:57:27.643Z,18.43
2018-10-18T15:59:57.763Z,16.00
2018-10-18T16:02:27.737Z,15.97
2018-10-18T16:04:57.697Z,14.93
2018-10-18T16:07:27.829Z,15.87
2018-10-18T16:09:57.830Z,17.17
2018-10-18T16:12:27.855Z,16.73
2018-10-18T16:14:57.947Z,20.27
2018-10-18T16:17:28.128Z,16.20
2018-10-18T16:19:58.185Z,16.13
2018-10-18T16:22:28.175Z,14.83
2018-10-18T16:24:58.258Z,15.30
2018-10-18T16:27:28.621Z,15.27
2018-10-18T16:29:58.721Z,16.80
2018-10-18T16:32:29.186Z,17.00
2018-10-18T16:34:59.334Z,15.40
2018-10-18T16:37:29.404Z,17.27
2018-10-18T16:39:59.836Z,14.80
2018-10-18T16:42:29.948Z,17.33
2018-10-18T16:45:00.465Z,18.57
2018-10-18T16:47:30.944Z,15.77
2018-10-18T16:50:01.295Z,14.87
2018-10-18T16:52:31.265Z,14.90
2018-10-18T16:55:01.211Z,14.30
2018-10-18T16:57:31.269Z,16.77
2018-10-18T17:00:01.475Z,17.83
2018-10-18T17:02:31.464Z,16.07
2018-10-18T17:05:01.477Z,16.33
2018-10-18T17:07:31.654Z,15.27
2018-10-18T17:10:01.820Z,18.70
2018-10-18T17:12:31.854Z,16.23
2018-10-18T17:15:01.818Z,17.43
2018-10-18T17:17:31.843Z,14.77
2018-10-18T17:20:02.328Z,16.23
2018-10-18T17:22:32.829Z,17.17
2018-10-18T17:25:07.400Z,18.27
2018-10-18T17:27:40.132Z,16.60
2018-10-18T17:30:12.551Z,13.70
2018-10-18T17:32:42.877Z,19.03
2018-10-18T17:35:12.828Z,15.50
2018-10-18T17:37:42.940Z,13.87
2018-10-18T17:40:13.026Z,17.63
2018-10-18T17:42:42.957Z,15.90
2018-10-18T17:45:13.317Z,17.77
2018-10-18T17:47:43.543Z,17.80
2018-10-18T17:50:13.772Z,19.57
2018-10-18T17:52:45.782Z,17.13
2018-10-18T17:55:17.136Z,17.80
2018-10-18T17:57:47.246Z,16.63
2018-10-18T18:00:17.632Z,16.87
2018-10-18T18:02:47.778Z,17.10
2018-10-18T18:05:17.932Z,20.57
2018-10-18T18:07:47.994Z,17.50
2018-10-18T18:10:21.063Z,19.93
2018-10-18T18:12:52.664Z,17.20
2018-10-18T18:15:23.581Z,17.93
2018-10-18T18:17:53.831Z,20.03
2018-10-18T18:20:23.924Z,17.87
2018-10-18T18:22:54.252Z,16.23
2018-10-18T18:25:24.410Z,19.70
2018-10-18T18:27:54.541Z,17.10
2018-10-18T18:30:24.579Z,22.00
2018-10-18T18:32:54.559Z,20.70
2018-10-18T18:35:24.651Z,22.17
2018-10-18T18:37:54.702Z,19.63
2018-10-18T18:40:24.667Z,18.10
2018-10-18T18:42:54.684Z,23.73
2018-10-18T18:45:25.999Z,18.93
2018-10-18T18:47:55.895Z,20.97
2018-10-18T18:50:26.083Z,23.10
2018-10-18T18:53:08.040Z,21.00
2018-10-18T18:55:58.607Z,20.60
2018-10-18T18:58:52.224Z,22.90
2018-10-18T19:01:26.489Z,24.77
2018-10-18T19:03:57.126Z,21.37
2018-10-18T19:06:27.121Z,24.00
2018-10-18T19:08:57.112Z,23.40
2018-10-18T19:11:27.152Z,22.53
2018-10-18T19:13:57.296Z,22.20
2018-10-18T19:16:27.546Z,22.07
2018-10-18T19:18:57.530Z,25.23
2018-10-18T19:21:27.606Z,23.43
2018-10-18T19:23:57.656Z,27.63
2018-10-18T19:26:27.662Z,27.00
2018-10-18T19:28:57.808Z,29.00
2018-10-18T19:31:27.823Z,31.97
2018-10-18T19:33:57.904Z,25.03
2018-10-18T19:36:28.027Z,31.50
2018-10-18T19:38:58.060Z,24.83
2018-10-18T19:41:28.019Z,22.90
2018-10-18T19:43:58.109Z,26.63
2018-10-18T19:46:28.111Z,28.63
2018-10-18T19:48:58.215Z,27.47
2018-10-18T19:51:28.156Z,24.87
2018-10-18T19:53:58.390Z,27.10
2018-10-18T19:56:28.418Z,31.17
2018-10-18T19:58:58.478Z,28.83
2018-10-18T20:01:28.601Z,27.20
2018-10-18T20:03:59.174Z,30.17
2018-10-18T20:06:29.201Z,23.83
2018-10-18T20:08:59.723Z,26.17
2018-10-18T20:11:29.678Z,27.40
2018-10-18T20:13:59.852Z,25.53
2018-10-18T20:16:30.212Z,28.03
2018-10-18T20:19:00.323Z,26.47
2018-10-18T20:21:31.294Z,25.53
2018-10-18T20:24:01.398Z,27.03
2018-10-18T20:26:31.641Z,24.17
2018-10-18T20:29:01.757Z,26.07
2018-10-18T20:31:31.861Z,30.77
2018-10-18T20:34:02.261Z,31.33
2018-10-18T20:36:32.301Z,28.77
2018-10-18T20:39:02.445Z,26.57
2018-10-18T20:41:32.434Z,30.57
2018-10-18T20:44:02.523Z,30.37
2018-10-18T20:46:32.614Z,33.23
2018-10-18T20:49:02.564Z,30.37
2018-10-18T20:51:32.989Z,32.20
2018-10-18T20:54:03.876Z,31.40
2018-10-18T20:56:34.060Z,28.90
2018-10-18T20:59:04.316Z,32.83
2018-10-18T21:01:39.509Z,42.00
2018-10-18T21:04:16.382Z,32.47
2018-10-18T21:06:51.093Z,31.90
2018-10-18T21:09:24.427Z,32.67
2018-10-18T21:11:57.748Z,28.53
2018-10-18T21:14:28.990Z,31.67
2018-10-18T21:16:59.121Z,30.00
2018-10-18T21:19:29.472Z,32.23
2018-10-18T21:21:59.728Z,31.77
2018-10-18T21:24:29.750Z,36.53
2018-10-18T21:27:00.578Z,31.53
2018-10-18T21:29:30.708Z,36.50
2018-10-18T21:32:00.719Z,37.17
2018-10-18T21:34:30.803Z,37.70
2018-10-18T21:37:01.497Z,36.47
2018-10-18T21:39:35.728Z,37.13
2018-10-18T21:42:06.043Z,36.00
2018-10-18T21:44:37.370Z,37.30
2018-10-18T21:47:10.425Z,34.83
2018-10-18T21:49:44.094Z,33.77
2018-10-18T21:52:14.587Z,43.57
2018-10-18T21:54:44.657Z,40.90
2018-10-18T21:57:14.862Z,36.13
2018-10-18T21:59:44.717Z,41.27
2018-10-18T22:02:14.833Z,37.77
2018-10-18T22:04:44.869Z,41.80
2018-10-18T22:07:14.967Z,38.13
2018-10-18T22:09:45.010Z,38.40
2018-10-18T22:12:15.545Z,40.17
2018-10-18T22:14:45.630Z,39.97
2018-10-18T22:17:15.750Z,35.23
2018-10-18T22:19:45.685Z,40.47
2018-10-18T22:22:15.717Z,40.30
2018-10-18T22:24:45.692Z,41.13
2018-10-18T22:27:15.777Z,39.63
2018-10-18T22:29:46.010Z,36.50
2018-10-18T22:32:16.100Z,40.10
2018-10-18T22:34:46.292Z,35.90
2018-10-18T22:37:16.406Z,36.00
2018-10-18T22:39:46.399Z,40.37
2018-10-18T22:42:16.512Z,36.37
2018-10-18T22:44:46.495Z,39.60
2018-10-18T22:47:16.502Z,39.97
2018-10-18T22:49:46.544Z,37.03
2018-10-18T22:52:16.536Z,40.50
2018-10-18T22:54:46.459Z,42.13
2018-10-18T22:57:16.618Z,37.07
2018-10-18T22:59:46.506Z,37.67
2018-10-18T23:02:16.558Z,39.10
2018-10-18T23:04:46.878Z,38.03
2018-10-18T23:07:16.861Z,40.87
2018-10-18T23:09:46.841Z,44.00
2018-10-18T23:12:16.990Z,39.67
2018-10-18T23:14:47.018Z,39.97
2018-10-18T23:17:17.319Z,39.87
2018-10-18T23:19:47.381Z,40.87
2018-10-18T23:22:17.377Z,44.13
2018-10-18T23:24:47.392Z,48.07
2018-10-18T23:27:16.567Z,42.13
2018-10-18T23:29:46.499Z,43.17
2018-10-18T23:32:16.517Z,43.80
2018-10-18T23:34:46.503Z,47.17
2018-10-18T23:37:16.483Z,47.40
2018-10-18T23:39:46.467Z,48.27
2018-10-18T23:42:16.608Z,45.27
2018-10-18T23:44:46.939Z,51.43
2018-10-18T23:47:16.936Z,46.23
2018-10-18T23:49:46.854Z,45.00
2018-10-18T23:52:16.840Z,48.00
2018-10-18T23:54:46.832Z,48.67
2018-10-18T23:57:16.980Z,46.33
2018-10-18T23:59:46.896Z,46.43
